Bismarck, ND (58501)

7:12 AM CST on February 22, 2017 (GMT -0600)
Apple Meadows | | Change Station

Elev 1732 ft 46.81 °N, 100.67 °W | Updated 35 seconds ago

Rain
Rain
32.6 °F
Feels Like 28 °F
N
5.0
Wind Variable Wind from NNE

Today
High -- | Low -- °F
--% Chance of Precip.
Yesterday
High -- | Low -- °F
Precip. -- in
Pressure 29.74 in
Visibility 6.0 miles
Clouds Scattered Clouds 700 ft
Scattered Clouds 2800 ft
Overcast 3600 ft
Windchill 28 °F
Dew Point 31 °F
Humidity 96%
Rainfall 0.09 in
Snow Depth Not available.
7:34 AM 6:18 PM
Waning Crescent, 17% visible
METAR KBIS 221252Z 36007KT 6SM -RA BR SCT007 SCT028 OVC036 02/01 A2970 RMK AO2 SLP071 P0004 T00170006
Pressure 29.74 in
Visibility 6.0 miles
Clouds Scattered Clouds 700 ft
Scattered Clouds 2800 ft
Overcast 3600 ft
Windchill 28 °F
Dew Point 31 °F
Humidity 96%
Rainfall 0.09 in
Snow Depth Not available.
7:34 AM 6:18 PM
Waning Crescent, 17% visible
METAR KBIS 221252Z 36007KT 6SM -RA BR SCT007 SCT028 OVC036 02/01 A2970 RMK AO2 SLP071 P0004 T00170006

Get Your Daily Forecast Email!

Thanks for signing up!

Be on the lookout for a verification email in your inbox.

You'll start receiving the daily forecast at 8 AM.

×

10-Day Weather Forecast

Almanac

Astronomy

Feb. 22, 2017 Rise Set
Actual Time
Civil Twilight
Nautical Twilight
Astronomical Twilight
Moon
Length of Visible Light
Length of Day
Tomorrow will be .
, % of the Moon is Illuminated

Today's Extremes

State Highs State Lows

Community

WunderPhotos

Upload Photos

1,962,540 photos uploaded!

WunderBlog® & News

Nearby

Air Quality

  Air Quality AQ Index Pollutant
Not available.

Snow Depth

Station Depth Elevation

Earthquake Activity

City Distance Mag. Time & Date
Minimum magnitude displayed is 2.5.

Coastal Water Temperatures

Place Temperature

Stations

Nearby Weather Stations

Station Location Temp. Windchill Dew Point Humidity Wind Precip. Elev Updated Type
                   

Watches & Warnings

There are currently no watches in effect.